sensor_id;sensor_type;location;lat;lon;timestamp;temperature;humidity
23335;DHT22;11839;48.598;8.870;2023-03-23T00:00:02;14.60;92.80
23335;DHT22;11839;48.598;8.870;2023-03-23T00:02:32;14.60;92.70
23335;DHT22;11839;48.598;8.870;2023-03-23T00:05:01;14.60;93.00
23335;DHT22;11839;48.598;8.870;2023-03-23T00:07:29;14.50;93.00
23335;DHT22;11839;48.598;8.870;2023-03-23T00:09:56;14.60;93.40
23335;DHT22;11839;48.598;8.870;2023-03-23T00:12:26;14.60;93.10
23335;DHT22;11839;48.598;8.870;2023-03-23T00:14:58;14.70;93.10
23335;DHT22;11839;48.598;8.870;2023-03-23T00:17:26;14.70;93.20
23335;DHT22;11839;48.598;8.870;2023-03-23T00:19:53;14.70;93.10
23335;DHT22;11839;48.598;8.870;2023-03-23T00:22:20;14.70;92.90
23335;DHT22;11839;48.598;8.870;2023-03-23T00:24:50;14.70;92.90
23335;DHT22;11839;48.598;8.870;2023-03-23T00:27:18;14.80;92.90
23335;DHT22;11839;48.598;8.870;2023-03-23T00:29:48;14.80;92.70
23335;DHT22;11839;48.598;8.870;2023-03-23T00:32:19;14.70;92.60
23335;DHT22;11839;48.598;8.870;2023-03-23T00:34:47;14.80;92.40
23335;DHT22;11839;48.598;8.870;2023-03-23T00:37:15;14.70;92.10
23335;DHT22;11839;48.598;8.870;2023-03-23T00:39:43;14.80;92.50
23335;DHT22;11839;48.598;8.870;2023-03-23T00:42:12;14.90;92.30
23335;DHT22;11839;48.598;8.870;2023-03-23T00:44:39;15.10;92.00
23335;DHT22;11839;48.598;8.870;2023-03-23T00:47:07;15.00;92.20
23335;DHT22;11839;48.598;8.870;2023-03-23T00:49:36;15.20;92.20
23335;DHT22;11839;48.598;8.870;2023-03-23T00:52:04;14.80;92.70
23335;DHT22;11839;48.598;8.870;2023-03-23T00:54:32;14.70;92.70
23335;DHT22;11839;48.598;8.870;2023-03-23T00:56:59;14.50;93.00
23335;DHT22;11839;48.598;8.870;2023-03-23T00:59:26;14.30;93.20
23335;DHT22;11839;48.598;8.870;2023-03-23T01:01:53;14.10;93.30
23335;DHT22;11839;48.598;8.870;2023-03-23T01:04:21;14.00;93.60
23335;DHT22;11839;48.598;8.870;2023-03-23T01:06:49;14.00;93.60
23335;DHT22;11839;48.598;8.870;2023-03-23T01:09:18;14.10;93.70
23335;DHT22;11839;48.598;8.870;2023-03-23T01:11:47;14.10;93.80
23335;DHT22;11839;48.598;8.870;2023-03-23T01:14:16;13.80;93.70
23335;DHT22;11839;48.598;8.870;2023-03-23T01:16:43;13.60;94.30
23335;DHT22;11839;48.598;8.870;2023-03-23T01:19:10;13.60;94.30
23335;DHT22;11839;48.598;8.870;2023-03-23T01:21:38;13.60;94.60
23335;DHT22;11839;48.598;8.870;2023-03-23T01:24:06;13.70;94.60
23335;DHT22;11839;48.598;8.870;2023-03-23T01:26:33;13.80;94.50
23335;DHT22;11839;48.598;8.870;2023-03-23T01:29:00;13.80;94.60
23335;DHT22;11839;48.598;8.870;2023-03-23T01:31:27;13.70;94.60
23335;DHT22;11839;48.598;8.870;2023-03-23T01:33:54;13.60;95.30
23335;DHT22;11839;48.598;8.870;2023-03-23T01:36:23;13.70;94.90
23335;DHT22;11839;48.598;8.870;2023-03-23T01:38:53;13.40;95.10
23335;DHT22;11839;48.598;8.870;2023-03-23T01:41:21;13.40;95.40
23335;DHT22;11839;48.598;8.870;2023-03-23T01:43:59;13.30;95.50
23335;DHT22;11839;48.598;8.870;2023-03-23T01:46:27;13.60;95.30
23335;DHT22;11839;48.598;8.870;2023-03-23T01:48:56;13.70;94.90
23335;DHT22;11839;48.598;8.870;2023-03-23T01:51:25;13.70;95.00
23335;DHT22;11839;48.598;8.870;2023-03-23T01:53:57;13.60;95.10
23335;DHT22;11839;48.598;8.870;2023-03-23T01:56:31;13.40;95.50
23335;DHT22;11839;48.598;8.870;2023-03-23T01:58:59;13.30;95.50
23335;DHT22;11839;48.598;8.870;2023-03-23T02:01:26;13.20;95.60
23335;DHT22;11839;48.598;8.870;2023-03-23T02:03:55;13.20;95.90
23335;DHT22;11839;48.598;8.870;2023-03-23T02:06:23;13.20;95.80
23335;DHT22;11839;48.598;8.870;2023-03-23T02:08:51;13.30;95.80
23335;DHT22;11839;48.598;8.870;2023-03-23T02:11:21;13.40;95.60
23335;DHT22;11839;48.598;8.870;2023-03-23T02:13:49;13.50;95.30
23335;DHT22;11839;48.598;8.870;2023-03-23T02:16:23;13.50;95.40
23335;DHT22;11839;48.598;8.870;2023-03-23T02:18:58;13.80;95.50
23335;DHT22;11839;48.598;8.870;2023-03-23T02:22:09;13.80;94.90
23335;DHT22;11839;48.598;8.870;2023-03-23T02:24:57;13.80;95.10
23335;DHT22;11839;48.598;8.870;2023-03-23T02:27:51;13.90;95.20
23335;DHT22;11839;48.598;8.870;2023-03-23T02:30:37;13.90;94.70
23335;DHT22;11839;48.598;8.870;2023-03-23T02:33:39;13.80;95.20
23335;DHT22;11839;48.598;8.870;2023-03-23T02:36:13;13.70;95.20
23335;DHT22;11839;48.598;8.870;2023-03-23T02:38:47;13.80;95.20
23335;DHT22;11839;48.598;8.870;2023-03-23T02:41:20;13.80;95.40
23335;DHT22;11839;48.598;8.870;2023-03-23T02:43:49;13.80;95.30
23335;DHT22;11839;48.598;8.870;2023-03-23T02:46:17;13.60;95.60
23335;DHT22;11839;48.598;8.870;2023-03-23T02:48:46;13.60;95.70
23335;DHT22;11839;48.598;8.870;2023-03-23T02:51:17;13.80;95.50
23335;DHT22;11839;48.598;8.870;2023-03-23T02:53:45;13.70;95.70
23335;DHT22;11839;48.598;8.870;2023-03-23T02:56:13;13.60;95.90
23335;DHT22;11839;48.598;8.870;2023-03-23T02:58:41;13.70;96.00
23335;DHT22;11839;48.598;8.870;2023-03-23T03:04:01;13.30;96.30
23335;DHT22;11839;48.598;8.870;2023-03-23T03:06:34;13.30;96.50
23335;DHT22;11839;48.598;8.870;2023-03-23T03:09:04;13.20;96.60
23335;DHT22;11839;48.598;8.870;2023-03-23T03:11:36;13.30;96.30
23335;DHT22;11839;48.598;8.870;2023-03-23T03:14:06;13.30;96.30
23335;DHT22;11839;48.598;8.870;2023-03-23T03:16:36;13.40;96.40
23335;DHT22;11839;48.598;8.870;2023-03-23T03:19:08;13.60;96.30
23335;DHT22;11839;48.598;8.870;2023-03-23T03:21:38;13.60;96.10
23335;DHT22;11839;48.598;8.870;2023-03-23T03:24:08;13.70;96.40
23335;DHT22;11839;48.598;8.870;2023-03-23T03:26:38;13.70;96.20
23335;DHT22;11839;48.598;8.870;2023-03-23T03:29:06;14.00;95.90
23335;DHT22;11839;48.598;8.870;2023-03-23T03:31:36;13.90;95.80
23335;DHT22;11839;48.598;8.870;2023-03-23T03:34:06;14.00;95.80
23335;DHT22;11839;48.598;8.870;2023-03-23T03:36:34;13.90;95.80
23335;DHT22;11839;48.598;8.870;2023-03-23T03:39:04;14.00;96.10
23335;DHT22;11839;48.598;8.870;2023-03-23T03:41:33;14.10;95.80
23335;DHT22;11839;48.598;8.870;2023-03-23T03:44:00;14.40;95.70
23335;DHT22;11839;48.598;8.870;2023-03-23T03:46:27;14.20;95.50
23335;DHT22;11839;48.598;8.870;2023-03-23T03:48:56;14.30;95.60
23335;DHT22;11839;48.598;8.870;2023-03-23T03:51:25;14.40;95.40
23335;DHT22;11839;48.598;8.870;2023-03-23T03:53:52;14.50;95.40
23335;DHT22;11839;48.598;8.870;2023-03-23T03:56:19;14.30;95.70
23335;DHT22;11839;48.598;8.870;2023-03-23T03:58:47;14.00;95.90
23335;DHT22;11839;48.598;8.870;2023-03-23T04:01:16;14.20;95.70
23335;DHT22;11839;48.598;8.870;2023-03-23T04:03:43;14.10;96.10
23335;DHT22;11839;48.598;8.870;2023-03-23T04:06:11;13.90;96.40
23335;DHT22;11839;48.598;8.870;2023-03-23T04:08:39;14.00;96.30
23335;DHT22;11839;48.598;8.870;2023-03-23T04:11:07;13.60;96.60
23335;DHT22;11839;48.598;8.870;2023-03-23T04:13:34;13.70;96.70
23335;DHT22;11839;48.598;8.870;2023-03-23T04:16:01;14.00;96.30
23335;DHT22;11839;48.598;8.870;2023-03-23T04:18:28;14.00;96.40
23335;DHT22;11839;48.598;8.870;2023-03-23T04:20:57;13.80;96.20
23335;DHT22;11839;48.598;8.870;2023-03-23T04:23:26;14.00;96.30
23335;DHT22;11839;48.598;8.870;2023-03-23T04:25:55;13.80;96.60
23335;DHT22;11839;48.598;8.870;2023-03-23T04:28:23;13.90;96.30
23335;DHT22;11839;48.598;8.870;2023-03-23T04:30:50;14.00;96.10
23335;DHT22;11839;48.598;8.870;2023-03-23T04:33:18;14.10;96.00
23335;DHT22;11839;48.598;8.870;2023-03-23T04:35:46;14.20;95.80
23335;DHT22;11839;48.598;8.870;2023-03-23T04:38:14;14.20;95.60
23335;DHT22;11839;48.598;8.870;2023-03-23T04:40:43;14.00;95.80
23335;DHT22;11839;48.598;8.870;2023-03-23T04:43:11;14.00;95.80
23335;DHT22;11839;48.598;8.870;2023-03-23T04:45:38;13.90;95.70
23335;DHT22;11839;48.598;8.870;2023-03-23T04:48:07;14.10;95.90
23335;DHT22;11839;48.598;8.870;2023-03-23T04:50:35;14.20;95.60
23335;DHT22;11839;48.598;8.870;2023-03-23T04:53:03;14.30;95.80
23335;DHT22;11839;48.598;8.870;2023-03-23T04:55:31;14.40;95.70
23335;DHT22;11839;48.598;8.870;2023-03-23T04:58:01;14.50;95.40
23335;DHT22;11839;48.598;8.870;2023-03-23T05:00:29;14.50;95.30
23335;DHT22;11839;48.598;8.870;2023-03-23T05:02:56;14.40;95.40
23335;DHT22;11839;48.598;8.870;2023-03-23T05:05:24;14.40;95.30
23335;DHT22;11839;48.598;8.870;2023-03-23T05:07:52;14.30;95.30
23335;DHT22;11839;48.598;8.870;2023-03-23T05:10:19;14.50;95.40
23335;DHT22;11839;48.598;8.870;2023-03-23T05:12:46;14.40;95.40
23335;DHT22;11839;48.598;8.870;2023-03-23T05:15:15;14.30;95.50
23335;DHT22;11839;48.598;8.870;2023-03-23T05:17:43;14.30;95.40
23335;DHT22;11839;48.598;8.870;2023-03-23T05:20:12;14.40;95.60
23335;DHT22;11839;48.598;8.870;2023-03-23T05:22:39;14.40;95.60
23335;DHT22;11839;48.598;8.870;2023-03-23T05:25:07;14.20;95.80
23335;DHT22;11839;48.598;8.870;2023-03-23T05:27:35;14.30;95.70
23335;DHT22;11839;48.598;8.870;2023-03-23T05:30:03;14.20;95.80
23335;DHT22;11839;48.598;8.870;2023-03-23T05:32:30;14.10;96.00
23335;DHT22;11839;48.598;8.870;2023-03-23T05:34:59;14.10;95.90
23335;DHT22;11839;48.598;8.870;2023-03-23T05:37:27;14.00;96.10
23335;DHT22;11839;48.598;8.870;2023-03-23T05:39:57;14.10;96.00
23335;DHT22;11839;48.598;8.870;2023-03-23T05:42:27;14.10;95.80
23335;DHT22;11839;48.598;8.870;2023-03-23T05:44:54;14.10;95.90
23335;DHT22;11839;48.598;8.870;2023-03-23T05:47:20;14.20;95.80
23335;DHT22;11839;48.598;8.870;2023-03-23T05:49:47;14.10;95.90
23335;DHT22;11839;48.598;8.870;2023-03-23T05:52:15;14.00;96.00
23335;DHT22;11839;48.598;8.870;2023-03-23T05:54:42;14.20;96.00
23335;DHT22;11839;48.598;8.870;2023-03-23T05:57:10;14.40;95.80
23335;DHT22;11839;48.598;8.870;2023-03-23T05:59:37;14.60;95.50
23335;DHT22;11839;48.598;8.870;2023-03-23T06:02:04;14.60;95.40
23335;DHT22;11839;48.598;8.870;2023-03-23T06:04:31;14.70;95.40
23335;DHT22;11839;48.598;8.870;2023-03-23T06:06:59;14.70;95.20
23335;DHT22;11839;48.598;8.870;2023-03-23T06:09:27;14.70;95.40
23335;DHT22;11839;48.598;8.870;2023-03-23T06:11:54;14.70;95.50
23335;DHT22;11839;48.598;8.870;2023-03-23T06:14:21;14.60;95.40
23335;DHT22;11839;48.598;8.870;2023-03-23T06:16:47;14.70;95.50
23335;DHT22;11839;48.598;8.870;2023-03-23T06:19:14;15.00;95.30
23335;DHT22;11839;48.598;8.870;2023-03-23T06:21:41;15.10;95.10
23335;DHT22;11839;48.598;8.870;2023-03-23T06:24:09;15.20;95.00
23335;DHT22;11839;48.598;8.870;2023-03-23T06:26:39;15.20;95.00
23335;DHT22;11839;48.598;8.870;2023-03-23T06:29:07;15.30;95.00
23335;DHT22;11839;48.598;8.870;2023-03-23T06:31:38;15.10;94.70
23335;DHT22;11839;48.598;8.870;2023-03-23T06:34:05;15.00;95.00
23335;DHT22;11839;48.598;8.870;2023-03-23T06:36:32;15.00;94.90
23335;DHT22;11839;48.598;8.870;2023-03-23T06:38:59;15.00;94.90
23335;DHT22;11839;48.598;8.870;2023-03-23T06:41:26;15.00;94.70
23335;DHT22;11839;48.598;8.870;2023-03-23T06:43:55;15.00;94.90
23335;DHT22;11839;48.598;8.870;2023-03-23T06:46:21;15.00;95.00
23335;DHT22;11839;48.598;8.870;2023-03-23T06:48:48;15.00;94.70
23335;DHT22;11839;48.598;8.870;2023-03-23T06:51:15;15.00;94.90
23335;DHT22;11839;48.598;8.870;2023-03-23T06:53:42;15.20;94.70
23335;DHT22;11839;48.598;8.870;2023-03-23T06:56:09;15.20;94.60
23335;DHT22;11839;48.598;8.870;2023-03-23T06:58:37;15.10;94.80
23335;DHT22;11839;48.598;8.870;2023-03-23T07:01:06;15.10;94.70
23335;DHT22;11839;48.598;8.870;2023-03-23T07:03:33;15.20;94.60
23335;DHT22;11839;48.598;8.870;2023-03-23T07:06:00;15.40;94.40
23335;DHT22;11839;48.598;8.870;2023-03-23T07:08:27;15.60;94.30
23335;DHT22;11839;48.598;8.870;2023-03-23T07:10:55;15.40;94.50
23335;DHT22;11839;48.598;8.870;2023-03-23T07:13:22;15.40;94.70
23335;DHT22;11839;48.598;8.870;2023-03-23T07:15:49;15.40;94.60
23335;DHT22;11839;48.598;8.870;2023-03-23T07:18:17;15.60;94.70
23335;DHT22;11839;48.598;8.870;2023-03-23T07:20:47;15.70;94.50
23335;DHT22;11839;48.598;8.870;2023-03-23T07:23:14;16.00;94.40
23335;DHT22;11839;48.598;8.870;2023-03-23T07:25:42;15.90;94.30
23335;DHT22;11839;48.598;8.870;2023-03-23T07:28:10;15.70;94.50
23335;DHT22;11839;48.598;8.870;2023-03-23T07:30:37;15.60;94.90
23335;DHT22;11839;48.598;8.870;2023-03-23T07:33:05;15.80;95.00
23335;DHT22;11839;48.598;8.870;2023-03-23T07:35:34;15.80;95.00
23335;DHT22;11839;48.598;8.870;2023-03-23T07:38:02;15.90;94.70
23335;DHT22;11839;48.598;8.870;2023-03-23T07:40:29;16.00;94.80
23335;DHT22;11839;48.598;8.870;2023-03-23T07:42:59;16.10;95.00
23335;DHT22;11839;48.598;8.870;2023-03-23T07:45:27;16.50;94.80
23335;DHT22;11839;48.598;8.870;2023-03-23T07:47:54;16.60;94.50
23335;DHT22;11839;48.598;8.870;2023-03-23T07:50:21;16.90;94.40
23335;DHT22;11839;48.598;8.870;2023-03-23T07:52:54;16.80;94.40
23335;DHT22;11839;48.598;8.870;2023-03-23T07:55:21;16.90;94.40
23335;DHT22;11839;48.598;8.870;2023-03-23T07:57:50;16.80;94.50
23335;DHT22;11839;48.598;8.870;2023-03-23T08:00:18;17.00;94.30
23335;DHT22;11839;48.598;8.870;2023-03-23T08:02:46;17.20;93.80
23335;DHT22;11839;48.598;8.870;2023-03-23T08:05:14;17.20;94.20
23335;DHT22;11839;48.598;8.870;2023-03-23T08:07:42;17.40;94.00
23335;DHT22;11839;48.598;8.870;2023-03-23T08:10:12;17.20;94.00
23335;DHT22;11839;48.598;8.870;2023-03-23T08:12:41;17.20;94.10
23335;DHT22;11839;48.598;8.870;2023-03-23T08:15:10;17.30;94.40
23335;DHT22;11839;48.598;8.870;2023-03-23T08:17:39;17.30;94.50
23335;DHT22;11839;48.598;8.870;2023-03-23T08:20:07;17.20;94.70
23335;DHT22;11839;48.598;8.870;2023-03-23T08:22:39;17.50;95.00
23335;DHT22;11839;48.598;8.870;2023-03-23T08:25:09;17.60;94.80
23335;DHT22;11839;48.598;8.870;2023-03-23T08:27:38;17.60;94.90
23335;DHT22;11839;48.598;8.870;2023-03-23T08:30:11;17.70;94.70
23335;DHT22;11839;48.598;8.870;2023-03-23T08:32:38;17.80;94.90
23335;DHT22;11839;48.598;8.870;2023-03-23T08:35:06;17.70;95.00
23335;DHT22;11839;48.598;8.870;2023-03-23T08:37:36;17.50;95.00
23335;DHT22;11839;48.598;8.870;2023-03-23T08:40:05;17.40;95.10
23335;DHT22;11839;48.598;8.870;2023-03-23T08:42:37;17.60;95.30
23335;DHT22;11839;48.598;8.870;2023-03-23T08:45:04;17.50;95.50
23335;DHT22;11839;48.598;8.870;2023-03-23T08:47:32;17.50;95.50
23335;DHT22;11839;48.598;8.870;2023-03-23T08:49:59;17.60;94.90
23335;DHT22;11839;48.598;8.870;2023-03-23T08:52:27;17.40;95.40
23335;DHT22;11839;48.598;8.870;2023-03-23T08:54:55;17.40;95.60
23335;DHT22;11839;48.598;8.870;2023-03-23T08:57:22;17.30;95.70
23335;DHT22;11839;48.598;8.870;2023-03-23T08:59:51;17.40;95.60
23335;DHT22;11839;48.598;8.870;2023-03-23T09:02:20;17.50;95.40
23335;DHT22;11839;48.598;8.870;2023-03-23T09:04:49;17.40;95.60
23335;DHT22;11839;48.598;8.870;2023-03-23T09:07:15;17.20;95.90
23335;DHT22;11839;48.598;8.870;2023-03-23T09:09:42;17.20;96.20
23335;DHT22;11839;48.598;8.870;2023-03-23T09:12:10;17.00;96.20
23335;DHT22;11839;48.598;8.870;2023-03-23T09:14:37;16.90;96.30
23335;DHT22;11839;48.598;8.870;2023-03-23T09:17:06;16.90;96.60
23335;DHT22;11839;48.598;8.870;2023-03-23T09:19:34;17.20;96.30
23335;DHT22;11839;48.598;8.870;2023-03-23T09:22:02;17.40;96.20
23335;DHT22;11839;48.598;8.870;2023-03-23T09:24:29;17.50;95.90
23335;DHT22;11839;48.598;8.870;2023-03-23T09:26:56;17.20;95.90
23335;DHT22;11839;48.598;8.870;2023-03-23T09:29:24;17.10;96.40
23335;DHT22;11839;48.598;8.870;2023-03-23T09:31:50;17.30;96.60
23335;DHT22;11839;48.598;8.870;2023-03-23T09:34:19;17.20;96.40
23335;DHT22;11839;48.598;8.870;2023-03-23T09:36:46;17.10;96.70
23335;DHT22;11839;48.598;8.870;2023-03-23T09:39:13;17.20;96.80
23335;DHT22;11839;48.598;8.870;2023-03-23T09:42:03;17.00;96.70
23335;DHT22;11839;48.598;8.870;2023-03-23T09:44:43;16.90;97.20
23335;DHT22;11839;48.598;8.870;2023-03-23T09:47:19;17.20;96.90
23335;DHT22;11839;48.598;8.870;2023-03-23T09:49:50;17.50;96.60
23335;DHT22;11839;48.598;8.870;2023-03-23T09:52:19;17.70;96.50
23335;DHT22;11839;48.598;8.870;2023-03-23T09:54:47;17.80;95.70
23335;DHT22;11839;48.598;8.870;2023-03-23T09:57:22;17.50;96.00
23335;DHT22;11839;48.598;8.870;2023-03-23T09:59:57;17.60;96.10
23335;DHT22;11839;48.598;8.870;2023-03-23T10:02:33;17.50;96.40
23335;DHT22;11839;48.598;8.870;2023-03-23T10:05:22;17.80;95.90
23335;DHT22;11839;48.598;8.870;2023-03-23T10:07:50;18.00;95.80
23335;DHT22;11839;48.598;8.870;2023-03-23T10:10:18;18.10;95.70
23335;DHT22;11839;48.598;8.870;2023-03-23T10:12:51;18.20;96.00
23335;DHT22;11839;48.598;8.870;2023-03-23T10:15:23;18.50;95.70
23335;DHT22;11839;48.598;8.870;2023-03-23T10:17:56;18.40;95.50
23335;DHT22;11839;48.598;8.870;2023-03-23T10:20:36;18.60;95.30
23335;DHT22;11839;48.598;8.870;2023-03-23T10:23:20;18.60;95.20
23335;DHT22;11839;48.598;8.870;2023-03-23T10:25:53;18.70;95.00
23335;DHT22;11839;48.598;8.870;2023-03-23T10:28:34;18.60;95.20
23335;DHT22;11839;48.598;8.870;2023-03-23T10:31:02;18.40;95.70
23335;DHT22;11839;48.598;8.870;2023-03-23T10:33:34;17.90;96.10
23335;DHT22;11839;48.598;8.870;2023-03-23T10:36:07;18.00;95.80
23335;DHT22;11839;48.598;8.870;2023-03-23T10:38:37;18.00;95.60
23335;DHT22;11839;48.598;8.870;2023-03-23T10:41:10;18.30;95.80
23335;DHT22;11839;48.598;8.870;2023-03-23T10:43:38;18.30;95.90
23335;DHT22;11839;48.598;8.870;2023-03-23T10:46:16;18.60;95.50
23335;DHT22;11839;48.598;8.870;2023-03-23T10:48:45;18.60;95.70
23335;DHT22;11839;48.598;8.870;2023-03-23T10:51:19;18.50;95.40
23335;DHT22;11839;48.598;8.870;2023-03-23T10:53:50;18.50;95.90
23335;DHT22;11839;48.598;8.870;2023-03-23T10:56:24;18.80;95.50
23335;DHT22;11839;48.598;8.870;2023-03-23T10:58:51;18.70;96.00
23335;DHT22;11839;48.598;8.870;2023-03-23T11:01:20;18.80;95.40
23335;DHT22;11839;48.598;8.870;2023-03-23T11:03:48;18.70;94.80
23335;DHT22;11839;48.598;8.870;2023-03-23T11:06:22;18.60;95.40
23335;DHT22;11839;48.598;8.870;2023-03-23T11:08:54;18.40;95.00
23335;DHT22;11839;48.598;8.870;2023-03-23T11:11:25;18.50;95.40
23335;DHT22;11839;48.598;8.870;2023-03-23T11:13:57;18.40;95.50
23335;DHT22;11839;48.598;8.870;2023-03-23T11:16:26;18.40;95.80
23335;DHT22;11839;48.598;8.870;2023-03-23T11:18:54;18.30;96.40
23335;DHT22;11839;48.598;8.870;2023-03-23T11:21:23;18.10;96.70
23335;DHT22;11839;48.598;8.870;2023-03-23T11:23:53;18.30;96.30
23335;DHT22;11839;48.598;8.870;2023-03-23T11:26:25;18.40;96.00
23335;DHT22;11839;48.598;8.870;2023-03-23T11:28:56;18.70;96.30
23335;DHT22;11839;48.598;8.870;2023-03-23T11:31:26;18.70;95.70
23335;DHT22;11839;48.598;8.870;2023-03-23T11:33:57;18.80;95.50
23335;DHT22;11839;48.598;8.870;2023-03-23T11:36:33;18.70;95.30
23335;DHT22;11839;48.598;8.870;2023-03-23T11:39:00;19.30;94.70
23335;DHT22;11839;48.598;8.870;2023-03-23T11:41:33;19.30;94.80
23335;DHT22;11839;48.598;8.870;2023-03-23T11:44:09;19.40;94.30
23335;DHT22;11839;48.598;8.870;2023-03-23T11:46:45;19.60;94.00
23335;DHT22;11839;48.598;8.870;2023-03-23T11:49:22;19.50;93.80
23335;DHT22;11839;48.598;8.870;2023-03-23T11:51:56;19.70;93.60
23335;DHT22;11839;48.598;8.870;2023-03-23T11:54:29;19.90;93.70
23335;DHT22;11839;48.598;8.870;2023-03-23T11:56:57;20.30;93.10
23335;DHT22;11839;48.598;8.870;2023-03-23T11:59:28;19.70;92.60
23335;DHT22;11839;48.598;8.870;2023-03-23T12:02:01;19.40;93.10
23335;DHT22;11839;48.598;8.870;2023-03-23T12:04:39;19.20;93.40
23335;DHT22;11839;48.598;8.870;2023-03-23T12:07:32;19.50;93.20
23335;DHT22;11839;48.598;8.870;2023-03-23T12:10:14;19.30;92.60
23335;DHT22;11839;48.598;8.870;2023-03-23T12:12:49;19.30;93.00
23335;DHT22;11839;48.598;8.870;2023-03-23T12:15:22;19.10;92.30
23335;DHT22;11839;48.598;8.870;2023-03-23T12:17:57;19.00;92.70
23335;DHT22;11839;48.598;8.870;2023-03-23T12:20:38;19.50;92.80
23335;DHT22;11839;48.598;8.870;2023-03-23T12:23:18;20.00;91.90
23335;DHT22;11839;48.598;8.870;2023-03-23T12:26:19;19.90;92.00
23335;DHT22;11839;48.598;8.870;2023-03-23T12:31:55;19.90;91.70
23335;DHT22;11839;48.598;8.870;2023-03-23T12:34:31;19.60;92.60
23335;DHT22;11839;48.598;8.870;2023-03-23T12:37:13;19.30;92.30
23335;DHT22;11839;48.598;8.870;2023-03-23T12:40:00;19.80;92.70
23335;DHT22;11839;48.598;8.870;2023-03-23T12:42:43;20.00;92.00
23335;DHT22;11839;48.598;8.870;2023-03-23T12:45:21;19.40;92.20
23335;DHT22;11839;48.598;8.870;2023-03-23T12:47:54;19.50;92.40
23335;DHT22;11839;48.598;8.870;2023-03-23T12:50:28;19.70;92.10
23335;DHT22;11839;48.598;8.870;2023-03-23T12:52:58;19.50;92.40
23335;DHT22;11839;48.598;8.870;2023-03-23T12:55:32;19.30;92.40
23335;DHT22;11839;48.598;8.870;2023-03-23T12:58:04;19.90;92.30
23335;DHT22;11839;48.598;8.870;2023-03-23T13:00:36;20.60;91.40
23335;DHT22;11839;48.598;8.870;2023-03-23T13:03:10;20.70;91.10
23335;DHT22;11839;48.598;8.870;2023-03-23T13:05:43;20.70;91.40
23335;DHT22;11839;48.598;8.870;2023-03-23T13:08:15;20.80;91.20
23335;DHT22;11839;48.598;8.870;2023-03-23T13:10:46;20.90;91.40
23335;DHT22;11839;48.598;8.870;2023-03-23T13:13:17;20.80;91.10
23335;DHT22;11839;48.598;8.870;2023-03-23T13:15:53;20.80;91.00
23335;DHT22;11839;48.598;8.870;2023-03-23T13:18:28;20.90;91.20
23335;DHT22;11839;48.598;8.870;2023-03-23T13:21:08;20.60;91.40
23335;DHT22;11839;48.598;8.870;2023-03-23T13:23:40;20.90;91.30
23335;DHT22;11839;48.598;8.870;2023-03-23T13:26:12;20.60;91.50
23335;DHT22;11839;48.598;8.870;2023-03-23T13:28:49;20.80;91.50
23335;DHT22;11839;48.598;8.870;2023-03-23T13:31:21;21.20;90.60
23335;DHT22;11839;48.598;8.870;2023-03-23T13:33:51;20.90;90.30
23335;DHT22;11839;48.598;8.870;2023-03-23T13:36:27;20.60;90.40
23335;DHT22;11839;48.598;8.870;2023-03-23T13:38:54;20.70;90.10
23335;DHT22;11839;48.598;8.870;2023-03-23T13:41:24;20.40;90.00
23335;DHT22;11839;48.598;8.870;2023-03-23T13:43:52;20.30;90.30
23335;DHT22;11839;48.598;8.870;2023-03-23T13:46:31;20.20;90.30
23335;DHT22;11839;48.598;8.870;2023-03-23T13:49:16;20.30;90.40
23335;DHT22;11839;48.598;8.870;2023-03-23T13:52:15;20.10;90.80
23335;DHT22;11839;48.598;8.870;2023-03-23T13:54:44;20.40;90.60
23335;DHT22;11839;48.598;8.870;2023-03-23T13:57:32;20.50;90.60
23335;DHT22;11839;48.598;8.870;2023-03-23T14:00:10;20.80;90.30
23335;DHT22;11839;48.598;8.870;2023-03-23T14:02:39;20.80;90.20
23335;DHT22;11839;48.598;8.870;2023-03-23T14:05:24;20.60;90.10
23335;DHT22;11839;48.598;8.870;2023-03-23T14:07:56;20.10;90.50
23335;DHT22;11839;48.598;8.870;2023-03-23T14:10:30;19.80;90.70
23335;DHT22;11839;48.598;8.870;2023-03-23T14:13:00;19.50;91.10
23335;DHT22;11839;48.598;8.870;2023-03-23T14:15:29;19.50;91.00
23335;DHT22;11839;48.598;8.870;2023-03-23T14:17:57;19.50;91.10
23335;DHT22;11839;48.598;8.870;2023-03-23T14:20:26;19.50;91.50
23335;DHT22;11839;48.598;8.870;2023-03-23T14:22:57;19.60;90.60
23335;DHT22;11839;48.598;8.870;2023-03-23T14:25:27;19.80;91.00
23335;DHT22;11839;48.598;8.870;2023-03-23T14:27:55;19.90;90.80
23335;DHT22;11839;48.598;8.870;2023-03-23T14:30:25;19.70;90.60
23335;DHT22;11839;48.598;8.870;2023-03-23T14:32:54;19.50;90.80
23335;DHT22;11839;48.598;8.870;2023-03-23T14:35:32;19.50;90.30
23335;DHT22;11839;48.598;8.870;2023-03-23T14:37:59;19.70;90.50
23335;DHT22;11839;48.598;8.870;2023-03-23T14:40:28;19.90;89.50
23335;DHT22;11839;48.598;8.870;2023-03-23T14:42:56;19.70;89.30
23335;DHT22;11839;48.598;8.870;2023-03-23T14:45:25;19.70;89.30
23335;DHT22;11839;48.598;8.870;2023-03-23T14:47:54;19.70;89.20
23335;DHT22;11839;48.598;8.870;2023-03-23T14:50:26;19.40;89.50
23335;DHT22;11839;48.598;8.870;2023-03-23T14:52:57;19.20;89.00
23335;DHT22;11839;48.598;8.870;2023-03-23T14:55:24;19.40;89.50
23335;DHT22;11839;48.598;8.870;2023-03-23T14:57:54;19.50;89.50
23335;DHT22;11839;48.598;8.870;2023-03-23T15:00:33;19.20;88.30
23335;DHT22;11839;48.598;8.870;2023-03-23T15:03:03;18.90;89.20
23335;DHT22;11839;48.598;8.870;2023-03-23T15:05:34;18.60;90.00
23335;DHT22;11839;48.598;8.870;2023-03-23T15:08:04;18.70;89.80
23335;DHT22;11839;48.598;8.870;2023-03-23T15:10:32;18.90;89.40
23335;DHT22;11839;48.598;8.870;2023-03-23T15:12:59;18.90;89.00
23335;DHT22;11839;48.598;8.870;2023-03-23T15:15:28;19.10;89.30
23335;DHT22;11839;48.598;8.870;2023-03-23T15:17:57;19.30;89.80
23335;DHT22;11839;48.598;8.870;2023-03-23T15:20:28;19.50;89.70
23335;DHT22;11839;48.598;8.870;2023-03-23T15:22:56;19.50;89.70
23335;DHT22;11839;48.598;8.870;2023-03-23T15:25:29;19.50;89.30
23335;DHT22;11839;48.598;8.870;2023-03-23T15:27:58;19.30;89.80
23335;DHT22;11839;48.598;8.870;2023-03-23T15:30:31;19.10;89.80
23335;DHT22;11839;48.598;8.870;2023-03-23T15:33:05;19.00;90.30
23335;DHT22;11839;48.598;8.870;2023-03-23T15:35:34;18.80;90.00
23335;DHT22;11839;48.598;8.870;2023-03-23T15:38:04;18.60;90.10
23335;DHT22;11839;48.598;8.870;2023-03-23T15:40:34;18.60;90.30
23335;DHT22;11839;48.598;8.870;2023-03-23T15:43:16;18.40;90.30
23335;DHT22;11839;48.598;8.870;2023-03-23T15:45:54;18.40;90.40
23335;DHT22;11839;48.598;8.870;2023-03-23T15:48:23;18.40;90.70
23335;DHT22;11839;48.598;8.870;2023-03-23T15:50:50;18.40;90.70
23335;DHT22;11839;48.598;8.870;2023-03-23T15:53:29;18.40;90.30
23335;DHT22;11839;48.598;8.870;2023-03-23T15:55:59;18.30;90.60